Chattanooga, TN (37416)

4:52 AM EST on February 22, 2017 (GMT -0500)
Lake Shore Heights ,South Harrison | | Change Station

Elev 787 ft 35.13 °N, 85.16 °W | Updated 7 seconds ago

Rain
Rain
54.9 °F
Feels Like 54.9 °F
N
0.0
Wind Variable Wind from East
Gusts 4.0 mph

Today
High -- | Low -- °F
--% Chance of Precip.
Yesterday
High -- | Low -- °F
Precip. -- in
Pressure 29.90 in
Visibility 4.0 miles
Clouds Few 500 ft
Overcast 2300 ft
Dew Point 54 °F
Humidity 95%
Rainfall 0.02 in
Snow Depth Not available.
7:18 AM 6:30 PM
Waning Crescent, 18% visible
METAR KCHA 220853Z AUTO 00000KT 4SM BR FEW005 OVC023 14/13 A2991 RMK AO2 SLP124 60001 T01390128 56012 $
Pressure 29.90 in
Visibility 4.0 miles
Clouds Few 500 ft
Overcast 2300 ft
Dew Point 54 °F
Humidity 95%
Rainfall 0.02 in
Snow Depth Not available.
7:18 AM 6:30 PM
Waning Crescent, 18% visible
METAR KCHA 220853Z AUTO 00000KT 4SM BR FEW005 OVC023 14/13 A2991 RMK AO2 SLP124 60001 T01390128 56012 $

Get Your Daily Forecast Email!

Thanks for signing up!

Be on the lookout for a verification email in your inbox.

You'll start receiving the daily forecast at 8 AM.

×

10-Day Weather Forecast

Almanac

Astronomy

Feb. 22, 2017 Rise Set
Actual Time
Civil Twilight
Nautical Twilight
Astronomical Twilight
Moon
Length of Visible Light
Length of Day
Tomorrow will be .
, % of the Moon is Illuminated

Today's Extremes

State Highs State Lows

Community

WunderPhotos

Upload Photos

1,962,540 photos uploaded!

WunderBlog® & News

Nearby

Air Quality

  Air Quality AQ Index Pollutant
Not available.

Snow Depth

Station Depth Elevation

Earthquake Activity

City Distance Mag. Time & Date
Minimum magnitude displayed is 2.5.

Coastal Water Temperatures

Place Temperature

Stations

Nearby Weather Stations

Station Location Temp. Windchill Dew Point Humidity Wind Precip. Elev Updated Type
                   

Watches & Warnings

There are currently no watches in effect.